createdAt,value
2023-12-12T00:01:09.318Z,69.41
2023-12-12T00:03:11.255Z,69.57
2023-12-12T00:05:14.697Z,69.15
2023-12-12T00:07:19.017Z,69.69
2023-12-12T00:09:21.846Z,69.63
2023-12-12T00:11:24.750Z,69.57
2023-12-12T00:13:27.926Z,69.30
2023-12-12T00:15:30.878Z,69.57
2023-12-12T00:17:33.894Z,69.60
2023-12-12T00:19:41.692Z,69.70
2023-12-12T00:21:44.498Z,69.90
2023-12-12T00:23:47.770Z,69.58
2023-12-12T00:25:50.584Z,69.51
2023-12-12T00:27:53.465Z,69.58
2023-12-12T00:29:56.346Z,69.95
2023-12-12T00:31:59.282Z,69.91
2023-12-12T00:34:02.212Z,69.79
2023-12-12T00:36:05.705Z,69.78
2023-12-12T00:38:08.607Z,69.73
2023-12-12T00:40:13.429Z,69.72
2023-12-12T00:42:15.349Z,70.11
2023-12-12T00:44:18.194Z,70.47
2023-12-12T00:46:21.117Z,70.19
2023-12-12T00:48:24.148Z,70.57
2023-12-12T00:50:26.018Z,70.28
2023-12-12T00:52:30.803Z,70.49
2023-12-12T00:54:33.526Z,70.40
2023-12-12T00:56:37.695Z,70.18
2023-12-12T00:58:39.788Z,70.79
2023-12-12T01:00:42.632Z,70.42
2023-12-12T01:02:44.508Z,70.50
2023-12-12T01:04:47.419Z,70.50
2023-12-12T01:06:50.415Z,70.73
2023-12-12T01:08:53.916Z,70.68
2023-12-12T01:10:56.737Z,70.55
2023-12-12T01:13:03.028Z,70.87
2023-12-12T01:15:06.763Z,71.04
2023-12-12T01:17:09.657Z,71.09
2023-12-12T01:19:11.800Z,70.69
2023-12-12T01:21:14.854Z,70.96
2023-12-12T01:23:16.745Z,70.81
2023-12-12T01:25:19.716Z,70.62
2023-12-12T01:27:21.729Z,70.70
2023-12-12T01:29:26.095Z,70.42
2023-12-12T01:31:29.030Z,70.78
2023-12-12T01:33:30.910Z,70.86
2023-12-12T01:35:33.803Z,71.04
2023-12-12T01:37:36.711Z,71.64
2023-12-12T01:39:39.784Z,71.22
2023-12-12T01:41:42.592Z,71.77
2023-12-12T01:43:45.428Z,71.95
2023-12-12T01:45:49.774Z,72.06
2023-12-12T01:47:52.955Z,72.23
2023-12-12T01:49:56.363Z,72.46
2023-12-12T01:51:59.376Z,72.73
2023-12-12T01:54:04.252Z,72.95
2023-12-12T01:56:07.358Z,73.59
2023-12-12T01:58:11.059Z,73.67
2023-12-12T02:00:14.834Z,73.59
2023-12-12T02:02:19.751Z,73.46
2023-12-12T02:04:22.677Z,73.67
2023-12-12T02:06:25.806Z,73.49
2023-12-12T02:08:28.175Z,73.00
2023-12-12T02:10:32.514Z,72.81
2023-12-12T02:12:35.389Z,72.64
2023-12-12T02:14:38.745Z,73.07
2023-12-12T02:16:41.734Z,73.05
2023-12-12T02:18:45.996Z,73.07
2023-12-12T02:20:48.909Z,72.70
2023-12-12T02:22:53.129Z,72.48
2023-12-12T02:24:55.105Z,72.11
2023-12-12T02:26:58.492Z,72.40
2023-12-12T02:29:01.636Z,72.24
2023-12-12T02:31:04.945Z,72.71
2023-12-12T02:33:07.930Z,72.61
2023-12-12T02:35:10.824Z,72.78
2023-12-12T02:37:13.689Z,72.22
2023-12-12T02:39:17.963Z,72.02
2023-12-12T02:41:20.839Z,72.06
2023-12-12T02:43:24.012Z,72.40
2023-12-12T02:45:26.962Z,72.80
2023-12-12T02:47:30.139Z,72.67
2023-12-12T02:49:33.358Z,72.66
2023-12-12T02:51:36.301Z,72.80
2023-12-12T02:53:39.141Z,72.72
2023-12-12T02:55:42.417Z,72.62
2023-12-12T02:57:45.362Z,72.61
2023-12-12T02:59:48.239Z,72.64
2023-12-12T03:01:52.062Z,72.62
2023-12-12T03:03:55.001Z,72.67
2023-12-12T03:05:57.871Z,72.72
2023-12-12T03:08:00.841Z,72.90
2023-12-12T03:10:03.975Z,73.20
2023-12-12T03:12:08.548Z,73.14
2023-12-12T03:14:11.453Z,73.43
2023-12-12T03:16:14.355Z,73.35
2023-12-12T03:18:17.365Z,73.54
2023-12-12T03:20:20.241Z,73.31
2023-12-12T03:22:23.136Z,73.58
2023-12-12T03:24:26.190Z,73.30
2023-12-12T03:26:29.017Z,73.51
2023-12-12T03:28:33.348Z,73.94
2023-12-12T03:30:36.271Z,73.42
2023-12-12T03:32:39.320Z,73.22
2023-12-12T03:34:42.224Z,73.88
2023-12-12T03:36:45.409Z,73.67
2023-12-12T03:38:48.374Z,73.77
2023-12-12T03:40:51.216Z,73.76
2023-12-12T03:42:54.100Z,73.72
2023-12-12T03:44:58.365Z,73.83
2023-12-12T03:47:01.527Z,73.40
2023-12-12T03:49:03.468Z,73.70
2023-12-12T03:51:09.649Z,73.96
2023-12-12T03:53:12.593Z,73.99
2023-12-12T03:55:16.281Z,74.12
2023-12-12T03:57:19.338Z,74.11
2023-12-12T03:59:22.223Z,73.87
2023-12-12T04:01:26.677Z,74.13
2023-12-12T04:03:30.246Z,74.26
2023-12-12T04:05:33.185Z,74.44
2023-12-12T04:07:36.168Z,74.47
2023-12-12T04:09:39.164Z,74.16
2023-12-12T04:11:41.993Z,74.42
2023-12-12T04:13:44.852Z,74.28
2023-12-12T04:15:47.625Z,73.93
2023-12-12T04:17:52.017Z,74.04
2023-12-12T04:19:54.959Z,74.37
2023-12-12T04:21:57.925Z,74.37
2023-12-12T04:24:00.806Z,74.08
2023-12-12T04:26:03.777Z,74.04
2023-12-12T04:28:06.866Z,74.64
2023-12-12T04:30:10.867Z,74.95
2023-12-12T04:32:13.744Z,74.92
2023-12-12T04:34:18.091Z,75.11
2023-12-12T04:36:22.160Z,75.39
2023-12-12T04:38:25.084Z,75.13
2023-12-12T04:40:30.733Z,75.52
2023-12-12T04:42:33.577Z,75.53
2023-12-12T04:44:36.476Z,75.84
2023-12-12T04:46:42.229Z,75.78
2023-12-12T04:48:45.616Z,75.78
2023-12-12T04:50:49.853Z,75.79
2023-12-12T04:52:53.154Z,75.65
2023-12-12T04:54:56.281Z,75.33
2023-12-12T04:56:59.364Z,75.00
2023-12-12T04:59:02.150Z,75.33
2023-12-12T05:01:05.353Z,75.23
2023-12-12T05:03:08.342Z,75.25
2023-12-12T05:05:11.265Z,75.41
2023-12-12T05:07:18.116Z,75.08
2023-12-12T05:09:20.974Z,75.26
2023-12-12T05:11:23.903Z,75.74
2023-12-12T05:13:26.876Z,75.66
2023-12-12T05:15:30.228Z,75.72
2023-12-12T05:17:32.366Z,75.62
2023-12-12T05:19:35.874Z,75.66
2023-12-12T05:21:38.777Z,75.88
2023-12-12T05:23:43.087Z,75.61
2023-12-12T05:25:46.829Z,75.57
2023-12-12T05:27:49.766Z,75.54
2023-12-12T05:29:52.659Z,75.57
2023-12-12T05:31:55.494Z,75.79
2023-12-12T05:33:58.537Z,75.93
2023-12-12T05:36:01.464Z,75.86
2023-12-12T05:38:04.613Z,75.62
2023-12-12T05:40:09.927Z,75.75
2023-12-12T05:42:12.852Z,76.05
2023-12-12T05:44:14.665Z,75.51
2023-12-12T05:46:17.560Z,75.59
2023-12-12T05:48:20.519Z,75.08
2023-12-12T05:50:23.913Z,75.52
2023-12-12T05:52:26.847Z,75.85
2023-12-12T05:54:29.729Z,75.55
2023-12-12T05:56:33.967Z,75.79
2023-12-12T05:58:36.089Z,75.90
2023-12-12T06:00:41.117Z,75.96
2023-12-12T06:02:44.126Z,76.09
2023-12-12T06:04:49.584Z,76.38
2023-12-12T06:06:51.729Z,76.28
2023-12-12T06:08:55.733Z,76.15
2023-12-12T06:10:58.561Z,76.05
2023-12-12T06:13:02.827Z,75.97
2023-12-12T06:15:08.689Z,76.23
2023-12-12T06:17:12.659Z,76.49
2023-12-12T06:19:15.551Z,76.22
2023-12-12T06:21:18.731Z,76.17
2023-12-12T06:23:21.622Z,76.28
2023-12-12T06:25:24.501Z,76.36
2023-12-12T06:27:27.361Z,76.44
2023-12-12T06:29:31.558Z,76.48
2023-12-12T06:31:34.432Z,76.60
2023-12-12T06:33:37.553Z,76.58
2023-12-12T06:35:40.503Z,76.50
2023-12-12T06:37:44.036Z,76.24
2023-12-12T06:39:47.671Z,76.29
2023-12-12T06:41:49.573Z,76.02
2023-12-12T06:43:52.503Z,75.92
2023-12-12T06:45:56.778Z,75.96
2023-12-12T06:47:59.837Z,76.71
2023-12-12T06:50:04.383Z,77.18
2023-12-12T06:52:07.621Z,77.23
2023-12-12T06:54:10.621Z,77.41
2023-12-12T06:56:13.531Z,77.53
2023-12-12T06:58:16.614Z,77.35
2023-12-12T07:00:21.231Z,77.25
2023-12-12T07:02:24.764Z,77.74
2023-12-12T07:04:27.784Z,77.35
2023-12-12T07:06:30.786Z,77.59
2023-12-12T07:08:33.701Z,77.65
2023-12-12T07:10:36.668Z,77.87
2023-12-12T07:12:39.706Z,77.72
2023-12-12T07:14:43.160Z,77.65
2023-12-12T07:16:45.163Z,77.11
2023-12-12T07:18:49.601Z,77.67
2023-12-12T07:20:52.443Z,77.46
2023-12-12T07:22:55.364Z,77.66
2023-12-12T07:24:57.406Z,77.33
2023-12-12T07:27:00.287Z,77.18
2023-12-12T07:29:03.142Z,77.11
2023-12-12T07:31:06.559Z,77.45
2023-12-12T07:33:09.914Z,77.95
2023-12-12T07:35:14.298Z,77.90
2023-12-12T07:37:18.749Z,77.91
2023-12-12T07:39:21.652Z,78.29
2023-12-12T07:41:24.557Z,78.25
2023-12-12T07:43:27.985Z,78.48
2023-12-12T07:45:30.921Z,78.79
2023-12-12T07:47:40.079Z,79.02
2023-12-12T07:49:46.381Z,78.98
2023-12-12T07:51:50.576Z,79.27
2023-12-12T07:53:53.003Z,79.35
2023-12-12T07:55:55.915Z,79.32
2023-12-12T07:58:00.821Z,79.30
2023-12-12T08:00:07.118Z,79.92
2023-12-12T08:02:14.914Z,79.73
2023-12-12T08:04:19.097Z,79.76
2023-12-12T08:06:22.255Z,79.99
2023-12-12T08:08:26.569Z,79.99
2023-12-12T08:10:29.774Z,79.90
2023-12-12T08:12:32.876Z,79.58
2023-12-12T08:14:35.778Z,79.98
2023-12-12T08:16:38.698Z,79.76
2023-12-12T08:18:42.010Z,79.91
2023-12-12T08:20:45.037Z,80.34
2023-12-12T08:22:46.982Z,80.06
2023-12-12T08:24:51.949Z,80.40
2023-12-12T08:26:55.194Z,81.21
2023-12-12T08:28:58.015Z,81.00
2023-12-12T08:31:01.095Z,81.12
2023-12-12T08:33:04.521Z,80.90
2023-12-12T08:35:08.664Z,81.03
2023-12-12T08:37:10.772Z,80.56
2023-12-12T08:39:14.479Z,80.58
2023-12-12T08:41:18.701Z,80.89
2023-12-12T08:43:21.712Z,81.46
2023-12-12T08:45:24.764Z,81.46
2023-12-12T08:47:30.009Z,80.99
2023-12-12T08:49:35.268Z,81.52
2023-12-12T08:51:38.250Z,81.16
2023-12-12T08:53:41.237Z,81.16
2023-12-12T08:55:44.318Z,81.78
2023-12-12T08:57:49.457Z,81.92
2023-12-12T08:59:52.437Z,81.90
2023-12-12T09:01:55.374Z,81.83
2023-12-12T09:03:58.525Z,82.47
2023-12-12T09:06:01.553Z,82.26
2023-12-12T09:08:05.023Z,82.16
2023-12-12T09:10:09.245Z,82.57
2023-12-12T09:12:12.162Z,82.03
2023-12-12T09:14:16.519Z,82.68
2023-12-12T09:16:19.465Z,82.72
2023-12-12T09:18:22.504Z,82.82
2023-12-12T09:20:24.681Z,82.85
2023-12-12T09:22:27.767Z,82.75
2023-12-12T09:24:30.774Z,82.76
2023-12-12T09:26:33.699Z,82.09
2023-12-12T09:28:37.600Z,82.25
2023-12-12T09:30:42.363Z,82.31
2023-12-12T09:32:45.199Z,82.43
2023-12-12T09:34:47.301Z,82.07
2023-12-12T09:36:50.269Z,83.08
2023-12-12T09:38:53.396Z,82.91
2023-12-12T09:40:56.501Z,83.22
2023-12-12T09:43:00.222Z,83.10
2023-12-12T09:45:06.243Z,83.09
2023-12-12T09:47:10.667Z,82.75
2023-12-12T09:49:14.515Z,83.49
2023-12-12T09:51:17.605Z,83.22
2023-12-12T09:53:21.022Z,83.19
2023-12-12T09:55:25.362Z,83.48
2023-12-12T09:57:30.155Z,83.86
2023-12-12T09:59:33.620Z,83.04
2023-12-12T10:01:37.255Z,83.54
2023-12-12T10:03:42.096Z,83.18
2023-12-12T10:05:47.239Z,83.16
2023-12-12T10:08:00.188Z,83.09
2023-12-12T10:10:13.800Z,83.70
2023-12-12T10:12:19.330Z,82.89
2023-12-12T10:14:37.406Z,83.09
2023-12-12T10:16:41.170Z,83.41
2023-12-12T10:18:48.381Z,83.03
2023-12-12T10:20:51.873Z,82.81
2023-12-12T10:22:58.535Z,82.81
2023-12-12T10:25:12.456Z,82.95
2023-12-12T10:27:21.866Z,83.12
2023-12-12T10:29:25.094Z,83.06
2023-12-12T10:31:27.660Z,83.53
2023-12-12T10:33:30.801Z,83.40
2023-12-12T10:35:36.152Z,82.79
2023-12-12T10:37:38.192Z,82.77
2023-12-12T10:39:44.702Z,82.74
2023-12-12T10:41:52.638Z,83.28
2023-12-12T10:43:57.269Z,83.45
2023-12-12T10:46:00.340Z,83.37
2023-12-12T10:48:07.332Z,83.32
2023-12-12T10:50:14.548Z,82.86
2023-12-12T10:52:19.430Z,82.60
2023-12-12T10:54:25.923Z,83.33
2023-12-12T10:56:36.833Z,82.72
2023-12-12T10:58:41.376Z,82.61
2023-12-12T11:00:45.207Z,82.32
2023-12-12T11:02:49.763Z,82.20
2023-12-12T11:04:56.240Z,82.39
2023-12-12T11:06:59.268Z,83.19
2023-12-12T11:09:04.605Z,82.34
2023-12-12T11:11:13.072Z,82.32
2023-12-12T11:13:18.365Z,81.90
2023-12-12T11:15:23.136Z,82.17
2023-12-12T11:17:26.074Z,82.92
2023-12-12T11:19:30.817Z,82.07
2023-12-12T11:21:44.856Z,82.52
2023-12-12T11:23:56.657Z,82.16
2023-12-12T11:26:02.673Z,82.30
2023-12-12T11:28:08.024Z,82.36
2023-12-12T11:30:12.628Z,82.89
2023-12-12T11:32:17.790Z,82.97
2023-12-12T11:34:22.101Z,82.44
2023-12-12T11:36:27.206Z,82.44
2023-12-12T11:38:32.104Z,82.32
2023-12-12T11:40:35.431Z,82.56
2023-12-12T11:42:42.431Z,82.52
2023-12-12T11:44:49.023Z,82.79
2023-12-12T11:46:53.472Z,83.00
2023-12-12T11:48:56.466Z,83.05
2023-12-12T11:50:59.518Z,83.20
2023-12-12T11:53:05.799Z,83.30
2023-12-12T11:55:10.905Z,83.35
2023-12-12T11:57:13.923Z,82.46
2023-12-12T11:59:24.261Z,82.80
2023-12-12T12:01:27.496Z,82.76
2023-12-12T12:03:29.698Z,83.44
2023-12-12T12:05:32.842Z,83.37
2023-12-12T12:07:36.173Z,83.07
2023-12-12T12:09:40.649Z,82.69
2023-12-12T12:11:45.674Z,82.64
2023-12-12T12:13:48.674Z,83.59
2023-12-12T12:15:52.022Z,83.12
2023-12-12T12:17:55.261Z,82.93
2023-12-12T12:19:59.263Z,83.54
2023-12-12T12:22:06.957Z,83.35
2023-12-12T12:24:08.922Z,84.23
2023-12-12T12:26:12.034Z,84.53
2023-12-12T12:28:14.928Z,83.81
2023-12-12T12:30:20.831Z,84.47
2023-12-12T12:32:24.344Z,84.26
2023-12-12T12:34:27.850Z,83.54
2023-12-12T12:36:38.701Z,83.24
2023-12-12T12:39:05.631Z,83.82
2023-12-12T12:41:23.112Z,83.39
2023-12-12T12:43:26.721Z,83.39
2023-12-12T12:45:28.831Z,83.02
2023-12-12T12:47:33.472Z,83.43
2023-12-12T12:49:36.501Z,83.56
2023-12-12T12:51:40.681Z,83.73
2023-12-12T12:53:44.657Z,83.56
2023-12-12T12:55:48.679Z,84.10
2023-12-12T12:57:51.226Z,83.59
2023-12-12T12:59:54.305Z,83.72
2023-12-12T13:01:57.399Z,84.11
2023-12-12T13:04:01.861Z,83.51
2023-12-12T13:06:07.476Z,84.21
2023-12-12T13:08:11.271Z,83.98
2023-12-12T13:10:16.309Z,84.23
2023-12-12T13:12:19.291Z,83.71
2023-12-12T13:14:22.500Z,83.70
2023-12-12T13:16:24.489Z,83.17
2023-12-12T13:18:27.521Z,83.99
2023-12-12T13:20:31.830Z,83.04
2023-12-12T13:22:33.981Z,83.52
2023-12-12T13:24:37.159Z,83.80
2023-12-12T13:26:39.091Z,83.41
2023-12-12T13:28:42.110Z,83.41
2023-12-12T13:30:45.128Z,83.77
2023-12-12T13:32:48.199Z,83.24
2023-12-12T13:34:51.645Z,83.05
2023-12-12T13:36:55.912Z,83.24
2023-12-12T13:38:58.853Z,83.60
2023-12-12T13:41:01.923Z,83.79
2023-12-12T13:43:05.206Z,83.43
2023-12-12T13:45:09.942Z,83.49
2023-12-12T13:47:12.878Z,84.05
2023-12-12T13:49:14.992Z,83.89
2023-12-12T13:51:21.369Z,83.68
2023-12-12T13:53:28.786Z,83.77
2023-12-12T13:55:32.452Z,83.90
2023-12-12T13:57:35.555Z,83.16
2023-12-12T13:59:39.152Z,84.26
2023-12-12T14:01:42.153Z,83.80
2023-12-12T14:03:45.238Z,83.13
2023-12-12T14:05:48.345Z,83.92
2023-12-12T14:07:50.450Z,84.05
2023-12-12T14:09:54.805Z,83.20
2023-12-12T14:11:56.858Z,83.25
2023-12-12T14:13:59.753Z,84.11
2023-12-12T14:16:03.667Z,83.56
2023-12-12T14:18:06.803Z,83.55
2023-12-12T14:20:10.638Z,83.50
2023-12-12T14:22:14.351Z,82.71
2023-12-12T14:24:17.968Z,83.06
2023-12-12T14:26:24.992Z,82.60
2023-12-12T14:28:29.468Z,82.76
2023-12-12T14:30:34.032Z,82.98
2023-12-12T14:32:37.598Z,83.02
2023-12-12T14:34:41.417Z,83.60
2023-12-12T14:36:44.953Z,83.22
2023-12-12T14:38:47.859Z,83.50
2023-12-12T14:40:50.835Z,83.52
2023-12-12T14:42:55.130Z,83.20
2023-12-12T14:44:58.170Z,83.48
2023-12-12T14:47:01.321Z,83.02
2023-12-12T14:49:06.422Z,83.07
2023-12-12T14:51:08.540Z,83.03
2023-12-12T14:53:11.533Z,83.68
2023-12-12T14:55:17.015Z,83.41
2023-12-12T14:57:20.901Z,83.28
2023-12-12T14:59:26.895Z,82.92
2023-12-12T15:01:30.006Z,84.02
2023-12-12T15:03:33.142Z,83.60
2023-12-12T15:05:36.297Z,83.75
2023-12-12T15:07:39.465Z,83.15
2023-12-12T15:09:42.505Z,83.65
2023-12-12T15:11:45.443Z,83.75
2023-12-12T15:13:48.676Z,83.77
2023-12-12T15:15:53.059Z,83.89
2023-12-12T15:17:55.075Z,83.78
2023-12-12T15:19:58.033Z,83.35
2023-12-12T15:22:01.032Z,83.61
2023-12-12T15:24:04.211Z,84.12
2023-12-12T15:26:07.739Z,84.15
2023-12-12T15:28:24.399Z,83.31
2023-12-12T15:30:32.784Z,83.47
2023-12-12T15:32:37.713Z,84.24
2023-12-12T15:34:41.043Z,84.31
2023-12-12T15:36:44.065Z,84.23
2023-12-12T15:38:48.563Z,83.92
2023-12-12T15:40:51.740Z,83.49
2023-12-12T15:42:53.736Z,84.29
2023-12-12T15:44:56.797Z,84.65
2023-12-12T15:46:59.735Z,83.87
2023-12-12T15:49:04.498Z,84.34
2023-12-12T15:51:07.905Z,83.79
2023-12-12T15:53:10.808Z,84.08
2023-12-12T15:55:14.193Z,84.47
2023-12-12T15:57:17.080Z,83.76
2023-12-12T15:59:20.908Z,83.77
2023-12-12T16:01:24.779Z,83.71
2023-12-12T16:03:27.878Z,83.87
2023-12-12T16:05:35.600Z,84.13
2023-12-12T16:07:40.123Z,84.61
2023-12-12T16:09:43.074Z,84.27
2023-12-12T16:11:47.463Z,83.98
2023-12-12T16:13:50.549Z,84.73
2023-12-12T16:15:52.553Z,84.50
2023-12-12T16:17:56.766Z,83.87
2023-12-12T16:19:59.953Z,84.81
2023-12-12T16:22:05.193Z,84.81
2023-12-12T16:24:08.801Z,84.99
2023-12-12T16:26:12.173Z,84.54
2023-12-12T16:28:15.254Z,84.84
2023-12-12T16:30:21.680Z,84.68
2023-12-12T16:32:24.821Z,84.09
2023-12-12T16:34:26.900Z,84.41
2023-12-12T16:36:31.663Z,84.42
2023-12-12T16:38:34.979Z,84.96
2023-12-12T16:40:39.917Z,84.91
2023-12-12T16:42:44.233Z,85.00
2023-12-12T16:44:47.168Z,84.71
2023-12-12T16:46:50.162Z,84.84
2023-12-12T16:48:53.216Z,84.06
2023-12-12T16:50:57.090Z,84.18
2023-12-12T16:53:00.134Z,84.97
2023-12-12T16:55:05.686Z,84.67
2023-12-12T16:57:08.768Z,84.97
2023-12-12T16:59:11.778Z,85.00
2023-12-12T17:01:15.589Z,84.98
2023-12-12T17:03:20.916Z,84.89
2023-12-12T17:05:24.597Z,85.17
2023-12-12T17:07:27.721Z,84.84
2023-12-12T17:09:29.628Z,85.17
2023-12-12T17:11:35.372Z,84.38
2023-12-12T17:13:37.267Z,84.51
2023-12-12T17:15:40.746Z,85.00
2023-12-12T17:17:44.522Z,85.05
2023-12-12T17:19:49.605Z,84.85
2023-12-12T17:21:54.157Z,84.81
2023-12-12T17:23:56.364Z,84.41
2023-12-12T17:25:59.313Z,84.22
2023-12-12T17:28:03.592Z,84.27
2023-12-12T17:30:10.432Z,84.29
2023-12-12T17:32:14.565Z,85.03
2023-12-12T17:34:17.678Z,85.38
2023-12-12T17:36:21.134Z,85.35
2023-12-12T17:38:23.997Z,84.74
2023-12-12T17:40:26.098Z,85.24
2023-12-12T17:42:30.586Z,84.75
2023-12-12T17:44:34.910Z,84.79
2023-12-12T17:46:42.354Z,84.97
2023-12-12T17:48:45.433Z,84.42
2023-12-12T17:50:48.929Z,85.12
2023-12-12T17:52:51.898Z,85.13
2023-12-12T17:54:54.882Z,85.48
2023-12-12T17:56:57.755Z,84.59
2023-12-12T17:59:03.145Z,85.12
2023-12-12T18:01:09.030Z,85.34
2023-12-12T18:03:12.513Z,85.03
2023-12-12T18:05:17.003Z,85.41
2023-12-12T18:07:19.958Z,85.52
2023-12-12T18:09:22.882Z,86.14
2023-12-12T18:11:26.202Z,85.65
2023-12-12T18:13:29.187Z,85.41
2023-12-12T18:15:32.142Z,85.40
2023-12-12T18:17:38.915Z,85.81
2023-12-12T18:19:41.104Z,85.98
2023-12-12T18:21:44.180Z,86.05
2023-12-12T18:23:47.156Z,86.01
2023-12-12T18:25:50.214Z,86.40
2023-12-12T18:27:53.225Z,86.28
2023-12-12T18:29:56.139Z,85.96
2023-12-12T18:31:59.462Z,85.83
2023-12-12T18:34:04.202Z,85.71
2023-12-12T18:36:09.501Z,86.75
2023-12-12T18:38:12.527Z,86.33
2023-12-12T18:40:18.298Z,86.30
2023-12-12T18:42:23.222Z,86.19
2023-12-12T18:44:26.019Z,85.59
2023-12-12T18:46:29.292Z,85.93
2023-12-12T18:48:33.903Z,85.71
2023-12-12T18:50:38.258Z,85.91
2023-12-12T18:52:40.658Z,85.74
2023-12-12T18:54:43.562Z,85.50
2023-12-12T18:56:46.449Z,85.47
2023-12-12T18:58:52.071Z,84.63
2023-12-12T19:00:55.326Z,85.40
2023-12-12T19:02:58.636Z,85.96
2023-12-12T19:05:01.788Z,85.36
2023-12-12T19:07:06.471Z,85.96
2023-12-12T19:09:10.509Z,85.33
2023-12-12T19:11:15.009Z,85.63
2023-12-12T19:13:18.406Z,85.95
2023-12-12T19:15:22.960Z,85.45
2023-12-12T19:17:26.224Z,85.39
2023-12-12T19:19:30.557Z,85.44
2023-12-12T19:21:35.450Z,85.55
2023-12-12T19:23:40.031Z,85.84
2023-12-12T19:25:42.962Z,86.04
2023-12-12T19:27:46.452Z,86.23
2023-12-12T19:29:48.392Z,85.66
2023-12-12T19:31:52.211Z,85.66
2023-12-12T19:33:55.267Z,85.91
2023-12-12T19:35:58.234Z,86.01
2023-12-12T19:38:01.107Z,85.71
2023-12-12T19:40:08.253Z,86.14
2023-12-12T19:42:11.599Z,86.18
2023-12-12T19:44:14.709Z,85.72
2023-12-12T19:46:18.429Z,85.98
2023-12-12T19:48:21.618Z,86.11
2023-12-12T19:50:24.715Z,86.41
2023-12-12T19:52:27.978Z,86.36
2023-12-12T19:54:46.068Z,89.23
2023-12-12T19:56:50.354Z,88.44
2023-12-12T19:58:53.465Z,86.81
2023-12-12T20:00:56.400Z,87.18
2023-12-12T20:02:59.280Z,87.75
2023-12-12T20:05:02.381Z,87.63
2023-12-12T20:07:06.939Z,88.31
2023-12-12T20:09:09.781Z,88.72
2023-12-12T20:11:12.669Z,87.80
2023-12-12T20:13:16.938Z,88.03
2023-12-12T20:15:21.335Z,86.75
2023-12-12T20:17:24.956Z,87.03
2023-12-12T20:19:28.090Z,86.14
2023-12-12T20:21:32.173Z,86.15
2023-12-12T20:23:35.094Z,85.37
2023-12-12T20:25:38.069Z,85.11
2023-12-12T20:27:45.831Z,84.80
2023-12-12T20:29:50.795Z,85.53
2023-12-12T20:31:53.870Z,85.25
2023-12-12T20:33:56.961Z,85.15
2023-12-12T20:36:00.165Z,85.17
2023-12-12T20:38:03.020Z,84.61
2023-12-12T20:40:08.873Z,85.19
2023-12-12T20:42:10.854Z,84.81
2023-12-12T20:44:13.750Z,85.14
2023-12-12T20:46:19.326Z,84.79
2023-12-12T20:48:22.444Z,84.29
2023-12-12T20:50:24.589Z,84.68
2023-12-12T20:52:29.884Z,84.13
2023-12-12T20:54:35.463Z,84.47
2023-12-12T20:56:42.416Z,83.99
2023-12-12T20:58:45.414Z,84.29
2023-12-12T21:00:48.473Z,84.15
2023-12-12T21:02:52.797Z,84.62
2023-12-12T21:04:55.759Z,84.43
2023-12-12T21:06:58.752Z,84.62
2023-12-12T21:09:01.644Z,85.23
2023-12-12T21:11:04.822Z,84.85
2023-12-12T21:13:07.782Z,84.73
2023-12-12T21:15:11.512Z,84.74
2023-12-12T21:17:13.539Z,85.10
2023-12-12T21:19:17.879Z,84.86
2023-12-12T21:21:20.859Z,85.35
2023-12-12T21:23:24.135Z,84.80
2023-12-12T21:25:27.165Z,85.31
2023-12-12T21:27:30.528Z,84.46
2023-12-12T21:29:35.958Z,84.78
2023-12-12T21:31:38.966Z,85.05
2023-12-12T21:33:42.395Z,85.05
2023-12-12T21:35:51.627Z,85.03
2023-12-12T21:37:55.268Z,83.92
2023-12-12T21:40:02.387Z,83.86
2023-12-12T21:42:06.307Z,84.34
2023-12-12T21:44:09.266Z,83.95
2023-12-12T21:46:12.222Z,84.49
2023-12-12T21:48:15.151Z,83.56
2023-12-12T21:50:19.009Z,83.18
2023-12-12T21:52:23.684Z,83.30
2023-12-12T21:54:26.659Z,83.69
2023-12-12T21:56:29.676Z,83.98
2023-12-12T21:58:32.684Z,83.77
2023-12-12T22:00:35.676Z,84.57
2023-12-12T22:02:38.911Z,84.12
2023-12-12T22:04:42.612Z,83.93
2023-12-12T22:06:45.526Z,84.50
2023-12-12T22:08:49.829Z,84.24
2023-12-12T22:10:52.810Z,84.38
2023-12-12T22:12:55.861Z,83.53
2023-12-12T22:14:58.803Z,84.10
2023-12-12T22:17:01.708Z,84.00
2023-12-12T22:19:04.819Z,83.92
2023-12-12T22:21:08.040Z,83.82
2023-12-12T22:23:10.951Z,83.45
2023-12-12T22:25:14.796Z,83.58
2023-12-12T22:27:17.722Z,83.91
2023-12-12T22:29:20.857Z,83.74
2023-12-12T22:31:24.324Z,84.46
2023-12-12T22:33:26.429Z,84.02
2023-12-12T22:35:29.399Z,83.71
2023-12-12T22:37:31.530Z,83.69
2023-12-12T22:39:34.997Z,83.75
2023-12-12T22:41:39.541Z,83.63
2023-12-12T22:43:42.230Z,83.54
2023-12-12T22:45:45.233Z,83.29
2023-12-12T22:47:48.179Z,83.34
2023-12-12T22:49:51.262Z,83.36
2023-12-12T22:51:54.229Z,84.04
2023-12-12T22:53:57.541Z,83.84
2023-12-12T22:56:00.425Z,84.23
2023-12-12T22:58:04.965Z,83.54
2023-12-12T23:00:26.300Z,83.42
2023-12-12T23:02:29.173Z,83.67
2023-12-12T23:04:31.255Z,83.92
2023-12-12T23:06:34.453Z,83.59
2023-12-12T23:08:37.664Z,83.50
2023-12-12T23:10:41.075Z,83.87
2023-12-12T23:12:43.979Z,84.12
2023-12-12T23:14:48.393Z,83.98
2023-12-12T23:16:50.381Z,83.70
2023-12-12T23:18:53.640Z,83.64
2023-12-12T23:20:56.987Z,83.97
2023-12-12T23:22:58.988Z,83.93
2023-12-12T23:25:02.126Z,83.62
2023-12-12T23:27:05.428Z,84.03
2023-12-12T23:29:08.696Z,83.85
2023-12-12T23:31:13.127Z,84.47
2023-12-12T23:33:15.414Z,84.06
2023-12-12T23:35:18.387Z,84.00
2023-12-12T23:37:23.919Z,84.11
2023-12-12T23:39:26.965Z,84.47
2023-12-12T23:41:30.157Z,84.67
2023-12-12T23:43:33.085Z,84.28
2023-12-12T23:45:38.360Z,84.37
2023-12-12T23:47:43.789Z,84.85
2023-12-12T23:49:46.823Z,84.88
2023-12-12T23:51:49.542Z,84.57
2023-12-12T23:53:57.013Z,84.62
2023-12-12T23:56:00.153Z,84.84
2023-12-12T23:58:05.830Z,83.83
